Ana Sayfa
METAR-TAF:

METAR-TAF

Havaalanları :

Kahire Uluslararası Havalimanı

Kahire, Mısır

Enlem: 30-08N, Boylam: 031-24E, yükseklik: 64 m

Güncel hava durumu gözlemi

Rapor saat 11:00 UTC de 47 dakika önce yapıldı.
Rüzgar kuzeydoğudan 19 kt
Sıcaklık 27°C
Nem 23%
Basınç 1021 hPa
Görüş mesafesi: 6000 m

METAR: HECA 241100Z 04019KT 6000 NSC 27/04 Q1021 NOSIG

Saat: 13:47 (11:47 UTC)

Tahmin

Rapor saat 11:00 UTC de 47 dakika önce yapıldı.
Ayın 24'si saat 12 UTC'den ayın 25'si saat 18 UTC'ye kadar geçerli Tahmin
Rüzgar doğu/kuzeydoğudan 15 kt ve 25 kt'a kadar ani rüzgarlar
Görüş mesafesi: 6000 m
Olasılık 30% :
Geçici
ayın 24'si saat 12 UTC'den ayın 24'si saat 18 UTC'ye kadar
Görüş mesafesi: 4000 m
Kum

TAF: HECA 241100Z 2412/2518 06015G25KT 6000 NSC PROB30 TEMPO 2412/2418 4000 SA

4.000'den fazla havaalanı için hava durumu gözlemleri ve tahminleri (METAR ve TAF raporları).

Kullanılabilir istasyonlar harita üzerinde sarı ve kırmızı noktalarla gösterilir.

İstasyonun adını görmek için fareyi noktanın üzerinde gezdirin.

Sonrasında hava gözlem ve tahminlerini görmek için tıklayın.

Haritayı değiştirmek için: yaklaştırmak için siyah artı işaretli yeşil düğmeye ve uzaklaştırmak için de eksi işaretli düğmeye hızla tıklayın; bitişik haritalar için yeşil okları kullanın.


METAR-TAF: